sensor_id;sensor_type;location;lat;lon;timestamp;P1;durP1;ratioP1;P2;durP2;ratioP2
69246;SDS011;56358;56.328;43.992;2022-11-30T00:00:38;40.03;;;11.82;;
69246;SDS011;56358;56.328;43.992;2022-11-30T00:02:39;35.20;;;11.82;;
69246;SDS011;56358;56.328;43.992;2022-11-30T00:04:40;30.67;;;11.40;;
69246;SDS011;56358;56.328;43.992;2022-11-30T00:06:41;37.65;;;11.52;;
69246;SDS011;56358;56.328;43.992;2022-11-30T00:08:42;34.55;;;10.52;;
69246;SDS011;56358;56.328;43.992;2022-11-30T00:10:42;28.77;;;9.73;;
69246;SDS011;56358;56.328;43.992;2022-11-30T00:12:43;27.08;;;10.50;;
69246;SDS011;56358;56.328;43.992;2022-11-30T00:14:44;24.40;;;8.07;;
69246;SDS011;56358;56.328;43.992;2022-11-30T00:16:45;44.13;;;13.75;;
69246;SDS011;56358;56.328;43.992;2022-11-30T00:18:46;44.72;;;13.43;;
69246;SDS011;56358;56.328;43.992;2022-11-30T00:20:46;43.33;;;13.23;;
69246;SDS011;56358;56.328;43.992;2022-11-30T00:22:47;33.65;;;12.38;;
69246;SDS011;56358;56.328;43.992;2022-11-30T00:24:49;36.83;;;11.05;;
69246;SDS011;56358;56.328;43.992;2022-11-30T00:26:49;38.47;;;13.05;;
69246;SDS011;56358;56.328;43.992;2022-11-30T00:28:50;47.55;;;14.32;;
69246;SDS011;56358;56.328;43.992;2022-11-30T00:30:57;38.38;;;12.45;;
69246;SDS011;56358;56.328;43.992;2022-11-30T00:32:59;33.70;;;11.80;;
69246;SDS011;56358;56.328;43.992;2022-11-30T00:34:59;37.70;;;12.40;;
69246;SDS011;56358;56.328;43.992;2022-11-30T00:37:00;30.80;;;11.75;;
69246;SDS011;56358;56.328;43.992;2022-11-30T00:39:01;36.45;;;12.15;;
69246;SDS011;56358;56.328;43.992;2022-11-30T00:41:02;35.72;;;12.82;;
69246;SDS011;56358;56.328;43.992;2022-11-30T00:43:02;36.90;;;11.93;;
69246;SDS011;56358;56.328;43.992;2022-11-30T00:45:03;38.90;;;13.70;;
69246;SDS011;56358;56.328;43.992;2022-11-30T00:47:04;55.92;;;15.63;;
69246;SDS011;56358;56.328;43.992;2022-11-30T00:49:05;34.95;;;13.35;;
69246;SDS011;56358;56.328;43.992;2022-11-30T00:51:06;50.83;;;14.02;;
69246;SDS011;56358;56.328;43.992;2022-11-30T00:53:08;44.13;;;13.80;;
69246;SDS011;56358;56.328;43.992;2022-11-30T00:55:08;53.10;;;16.50;;
69246;SDS011;56358;56.328;43.992;2022-11-30T00:57:09;38.38;;;14.10;;
69246;SDS011;56358;56.328;43.992;2022-11-30T00:59:10;36.78;;;12.50;;
69246;SDS011;56358;56.328;43.992;2022-11-30T01:01:11;48.35;;;14.57;;
69246;SDS011;56358;56.328;43.992;2022-11-30T01:03:12;40.00;;;12.88;;
69246;SDS011;56358;56.328;43.992;2022-11-30T01:05:12;36.80;;;13.00;;
69246;SDS011;56358;56.328;43.992;2022-11-30T01:07:13;45.13;;;14.55;;
69246;SDS011;56358;56.328;43.992;2022-11-30T01:09:14;51.75;;;14.95;;
69246;SDS011;56358;56.328;43.992;2022-11-30T01:11:22;45.00;;;14.95;;
69246;SDS011;56358;56.328;43.992;2022-11-30T01:13:24;61.38;;;15.52;;
69246;SDS011;56358;56.328;43.992;2022-11-30T01:15:25;41.10;;;13.20;;
69246;SDS011;56358;56.328;43.992;2022-11-30T01:17:25;27.17;;;10.07;;
69246;SDS011;56358;56.328;43.992;2022-11-30T01:19:26;46.35;;;12.52;;
69246;SDS011;56358;56.328;43.992;2022-11-30T01:21:27;36.90;;;13.45;;
69246;SDS011;56358;56.328;43.992;2022-11-30T01:23:28;32.33;;;13.15;;
69246;SDS011;56358;56.328;43.992;2022-11-30T01:25:29;50.15;;;14.60;;
69246;SDS011;56358;56.328;43.992;2022-11-30T01:27:29;28.60;;;11.45;;
69246;SDS011;56358;56.328;43.992;2022-11-30T01:29:30;60.22;;;14.57;;
69246;SDS011;56358;56.328;43.992;2022-11-30T01:31:30;59.45;;;12.98;;
69246;SDS011;56358;56.328;43.992;2022-11-30T01:33:32;47.90;;;12.90;;
69246;SDS011;56358;56.328;43.992;2022-11-30T01:35:32;43.55;;;13.45;;
69246;SDS011;56358;56.328;43.992;2022-11-30T01:37:33;56.83;;;12.30;;
69246;SDS011;56358;56.328;43.992;2022-11-30T01:39:34;38.33;;;13.07;;
69246;SDS011;56358;56.328;43.992;2022-11-30T01:41:35;49.55;;;14.63;;
69246;SDS011;56358;56.328;43.992;2022-11-30T01:45:49;41.63;;;13.80;;
69246;SDS011;56358;56.328;43.992;2022-11-30T01:47:53;44.30;;;13.40;;
69246;SDS011;56358;56.328;43.992;2022-11-30T01:50:07;45.92;;;13.88;;
69246;SDS011;56358;56.328;43.992;2022-11-30T01:52:22;44.53;;;14.65;;
69246;SDS011;56358;56.328;43.992;2022-11-30T01:54:28;50.38;;;14.98;;
69246;SDS011;56358;56.328;43.992;2022-11-30T01:56:36;42.95;;;13.65;;
69246;SDS011;56358;56.328;43.992;2022-11-30T01:58:40;43.58;;;14.25;;
69246;SDS011;56358;56.328;43.992;2022-11-30T02:00:42;46.88;;;14.55;;
69246;SDS011;56358;56.328;43.992;2022-11-30T02:05:24;56.83;;;14.90;;
69246;SDS011;56358;56.328;43.992;2022-11-30T02:07:26;47.88;;;13.88;;
69246;SDS011;56358;56.328;43.992;2022-11-30T02:09:27;49.95;;;14.57;;
69246;SDS011;56358;56.328;43.992;2022-11-30T02:11:31;55.05;;;14.55;;
69246;SDS011;56358;56.328;43.992;2022-11-30T02:13:44;46.78;;;15.50;;
69246;SDS011;56358;56.328;43.992;2022-11-30T02:18:41;59.35;;;14.85;;
69246;SDS011;56358;56.328;43.992;2022-11-30T02:21:12;52.53;;;14.30;;
69246;SDS011;56358;56.328;43.992;2022-11-30T02:30:39;33.17;;;11.65;;
69246;SDS011;56358;56.328;43.992;2022-11-30T02:34:47;50.67;;;13.18;;
69246;SDS011;56358;56.328;43.992;2022-11-30T02:36:49;46.77;;;11.53;;
69246;SDS011;56358;56.328;43.992;2022-11-30T02:38:51;70.22;;;14.65;;
69246;SDS011;56358;56.328;43.992;2022-11-30T02:40:53;91.38;;;16.40;;
69246;SDS011;56358;56.328;43.992;2022-11-30T02:42:54;110.32;;;17.13;;
69246;SDS011;56358;56.328;43.992;2022-11-30T02:44:57;49.53;;;13.45;;
69246;SDS011;56358;56.328;43.992;2022-11-30T02:49:45;45.60;;;14.10;;
69246;SDS011;56358;56.328;43.992;2022-11-30T02:51:35;40.78;;;11.48;;
69246;SDS011;56358;56.328;43.992;2022-11-30T02:55:38;41.55;;;11.77;;
69246;SDS011;56358;56.328;43.992;2022-11-30T02:57:39;42.85;;;11.65;;
69246;SDS011;56358;56.328;43.992;2022-11-30T02:59:40;34.97;;;10.48;;
69246;SDS011;56358;56.328;43.992;2022-11-30T03:01:41;40.20;;;11.65;;
69246;SDS011;56358;56.328;43.992;2022-11-30T03:03:41;68.28;;;16.23;;
69246;SDS011;56358;56.328;43.992;2022-11-30T03:05:44;49.67;;;14.82;;
69246;SDS011;56358;56.328;43.992;2022-11-30T03:07:44;51.90;;;14.23;;
69246;SDS011;56358;56.328;43.992;2022-11-30T03:09:45;55.20;;;13.73;;
69246;SDS011;56358;56.328;43.992;2022-11-30T03:11:46;43.83;;;13.10;;
69246;SDS011;56358;56.328;43.992;2022-11-30T03:13:46;39.92;;;11.30;;
69246;SDS011;56358;56.328;43.992;2022-11-30T03:15:47;25.10;;;8.77;;
69246;SDS011;56358;56.328;43.992;2022-11-30T03:17:48;38.10;;;11.98;;
69246;SDS011;56358;56.328;43.992;2022-11-30T03:19:48;36.33;;;12.32;;
69246;SDS011;56358;56.328;43.992;2022-11-30T03:21:49;53.20;;;12.23;;
69246;SDS011;56358;56.328;43.992;2022-11-30T03:23:50;32.92;;;11.10;;
69246;SDS011;56358;56.328;43.992;2022-11-30T03:25:51;38.20;;;11.32;;
69246;SDS011;56358;56.328;43.992;2022-11-30T03:27:57;32.53;;;10.57;;
69246;SDS011;56358;56.328;43.992;2022-11-30T03:30:00;23.08;;;8.25;;
69246;SDS011;56358;56.328;43.992;2022-11-30T03:32:01;38.33;;;10.95;;
69246;SDS011;56358;56.328;43.992;2022-11-30T03:34:01;37.03;;;10.60;;
69246;SDS011;56358;56.328;43.992;2022-11-30T03:36:06;39.40;;;11.95;;
69246;SDS011;56358;56.328;43.992;2022-11-30T03:38:08;37.30;;;10.73;;
69246;SDS011;56358;56.328;43.992;2022-11-30T03:40:10;37.03;;;12.05;;
69246;SDS011;56358;56.328;43.992;2022-11-30T03:42:10;40.80;;;11.38;;
69246;SDS011;56358;56.328;43.992;2022-11-30T03:44:11;35.95;;;11.50;;
69246;SDS011;56358;56.328;43.992;2022-11-30T03:46:12;25.15;;;8.32;;
69246;SDS011;56358;56.328;43.992;2022-11-30T03:48:13;36.35;;;11.98;;
69246;SDS011;56358;56.328;43.992;2022-11-30T03:50:13;37.92;;;12.57;;
69246;SDS011;56358;56.328;43.992;2022-11-30T03:52:14;30.45;;;11.57;;
69246;SDS011;56358;56.328;43.992;2022-11-30T03:54:15;21.05;;;7.88;;
69246;SDS011;56358;56.328;43.992;2022-11-30T03:56:15;35.17;;;11.20;;
69246;SDS011;56358;56.328;43.992;2022-11-30T03:58:16;33.47;;;11.40;;
69246;SDS011;56358;56.328;43.992;2022-11-30T04:00:17;35.67;;;10.52;;
69246;SDS011;56358;56.328;43.992;2022-11-30T04:02:18;32.67;;;8.20;;
69246;SDS011;56358;56.328;43.992;2022-11-30T04:04:21;32.45;;;10.02;;
69246;SDS011;56358;56.328;43.992;2022-11-30T04:06:21;33.20;;;9.23;;
69246;SDS011;56358;56.328;43.992;2022-11-30T04:08:22;25.98;;;8.32;;
69246;SDS011;56358;56.328;43.992;2022-11-30T04:10:23;28.40;;;9.02;;
69246;SDS011;56358;56.328;43.992;2022-11-30T04:12:24;38.17;;;9.93;;
69246;SDS011;56358;56.328;43.992;2022-11-30T04:14:24;20.08;;;8.82;;
69246;SDS011;56358;56.328;43.992;2022-11-30T04:16:25;27.48;;;9.98;;
69246;SDS011;56358;56.328;43.992;2022-11-30T04:18:27;25.02;;;9.48;;
69246;SDS011;56358;56.328;43.992;2022-11-30T04:20:28;29.75;;;8.60;;
69246;SDS011;56358;56.328;43.992;2022-11-30T04:22:29;17.25;;;7.85;;
69246;SDS011;56358;56.328;43.992;2022-11-30T04:24:30;25.85;;;7.22;;
69246;SDS011;56358;56.328;43.992;2022-11-30T04:26:30;20.15;;;8.82;;
69246;SDS011;56358;56.328;43.992;2022-11-30T04:28:31;22.73;;;9.05;;
69246;SDS011;56358;56.328;43.992;2022-11-30T04:30:32;21.75;;;8.00;;
69246;SDS011;56358;56.328;43.992;2022-11-30T04:32:34;30.30;;;9.40;;
69246;SDS011;56358;56.328;43.992;2022-11-30T04:34:35;16.52;;;5.80;;
69246;SDS011;56358;56.328;43.992;2022-11-30T04:36:36;26.42;;;8.73;;
69246;SDS011;56358;56.328;43.992;2022-11-30T04:38:36;13.98;;;5.55;;
69246;SDS011;56358;56.328;43.992;2022-11-30T04:40:38;25.00;;;7.30;;
69246;SDS011;56358;56.328;43.992;2022-11-30T04:42:39;33.22;;;10.75;;
69246;SDS011;56358;56.328;43.992;2022-11-30T04:44:40;29.23;;;9.30;;
69246;SDS011;56358;56.328;43.992;2022-11-30T04:46:41;25.58;;;7.05;;
69246;SDS011;56358;56.328;43.992;2022-11-30T04:48:41;29.75;;;9.38;;
69246;SDS011;56358;56.328;43.992;2022-11-30T04:50:42;21.85;;;8.63;;
69246;SDS011;56358;56.328;43.992;2022-11-30T04:52:43;22.55;;;8.55;;
69246;SDS011;56358;56.328;43.992;2022-11-30T04:54:43;21.67;;;7.55;;
69246;SDS011;56358;56.328;43.992;2022-11-30T04:56:44;7.75;;;4.70;;
69246;SDS011;56358;56.328;43.992;2022-11-30T04:58:45;17.02;;;7.28;;
69246;SDS011;56358;56.328;43.992;2022-11-30T05:00:45;15.75;;;6.65;;
69246;SDS011;56358;56.328;43.992;2022-11-30T05:02:46;28.63;;;7.72;;
69246;SDS011;56358;56.328;43.992;2022-11-30T05:04:46;12.55;;;5.63;;
69246;SDS011;56358;56.328;43.992;2022-11-30T05:06:47;22.02;;;8.13;;
69246;SDS011;56358;56.328;43.992;2022-11-30T05:08:48;19.15;;;7.78;;
69246;SDS011;56358;56.328;43.992;2022-11-30T05:10:52;14.95;;;6.20;;
69246;SDS011;56358;56.328;43.992;2022-11-30T05:12:53;19.48;;;6.18;;
69246;SDS011;56358;56.328;43.992;2022-11-30T05:14:54;27.70;;;10.10;;
69246;SDS011;56358;56.328;43.992;2022-11-30T05:16:54;14.43;;;4.65;;
69246;SDS011;56358;56.328;43.992;2022-11-30T05:18:55;27.17;;;8.32;;
69246;SDS011;56358;56.328;43.992;2022-11-30T05:20:56;19.85;;;8.13;;
69246;SDS011;56358;56.328;43.992;2022-11-30T05:22:56;29.75;;;9.98;;
69246;SDS011;56358;56.328;43.992;2022-11-30T05:24:57;17.83;;;7.22;;
69246;SDS011;56358;56.328;43.992;2022-11-30T05:26:58;18.63;;;7.18;;
69246;SDS011;56358;56.328;43.992;2022-11-30T05:28:59;15.95;;;6.43;;
69246;SDS011;56358;56.328;43.992;2022-11-30T05:31:03;17.23;;;7.00;;
69246;SDS011;56358;56.328;43.992;2022-11-30T05:33:04;16.13;;;6.85;;
69246;SDS011;56358;56.328;43.992;2022-11-30T05:35:05;25.67;;;9.38;;
69246;SDS011;56358;56.328;43.992;2022-11-30T05:37:06;22.08;;;7.53;;
69246;SDS011;56358;56.328;43.992;2022-11-30T05:39:07;21.52;;;7.95;;
69246;SDS011;56358;56.328;43.992;2022-11-30T05:41:07;18.92;;;6.75;;
69246;SDS011;56358;56.328;43.992;2022-11-30T05:43:08;19.63;;;6.90;;
69246;SDS011;56358;56.328;43.992;2022-11-30T05:45:09;16.25;;;5.93;;
69246;SDS011;56358;56.328;43.992;2022-11-30T05:47:10;21.40;;;8.25;;
69246;SDS011;56358;56.328;43.992;2022-11-30T05:49:11;33.60;;;9.10;;
69246;SDS011;56358;56.328;43.992;2022-11-30T05:51:15;20.10;;;6.65;;
69246;SDS011;56358;56.328;43.992;2022-11-30T05:53:17;11.05;;;4.38;;
69246;SDS011;56358;56.328;43.992;2022-11-30T05:55:17;7.10;;;4.05;;
69246;SDS011;56358;56.328;43.992;2022-11-30T05:57:18;18.95;;;7.72;;
69246;SDS011;56358;56.328;43.992;2022-11-30T05:59:19;28.73;;;9.25;;
69246;SDS011;56358;56.328;43.992;2022-11-30T06:01:20;24.85;;;8.48;;
69246;SDS011;56358;56.328;43.992;2022-11-30T06:03:28;26.50;;;7.32;;
69246;SDS011;56358;56.328;43.992;2022-11-30T06:05:32;29.73;;;8.65;;
69246;SDS011;56358;56.328;43.992;2022-11-30T06:07:34;23.17;;;8.20;;
69246;SDS011;56358;56.328;43.992;2022-11-30T06:09:34;15.65;;;6.07;;
69246;SDS011;56358;56.328;43.992;2022-11-30T06:11:35;18.17;;;5.53;;
69246;SDS011;56358;56.328;43.992;2022-11-30T06:13:36;14.73;;;5.57;;
69246;SDS011;56358;56.328;43.992;2022-11-30T06:15:38;8.75;;;4.97;;
69246;SDS011;56358;56.328;43.992;2022-11-30T06:17:40;17.02;;;6.88;;
69246;SDS011;56358;56.328;43.992;2022-11-30T06:19:40;19.80;;;6.90;;
69246;SDS011;56358;56.328;43.992;2022-11-30T06:21:41;27.08;;;9.30;;
69246;SDS011;56358;56.328;43.992;2022-11-30T06:23:42;15.48;;;6.13;;
69246;SDS011;56358;56.328;43.992;2022-11-30T06:25:42;26.85;;;7.50;;
69246;SDS011;56358;56.328;43.992;2022-11-30T06:27:43;23.88;;;8.73;;
69246;SDS011;56358;56.328;43.992;2022-11-30T06:29:43;21.48;;;6.15;;
69246;SDS011;56358;56.328;43.992;2022-11-30T06:31:44;24.75;;;8.50;;
69246;SDS011;56358;56.328;43.992;2022-11-30T06:33:45;25.15;;;8.50;;
69246;SDS011;56358;56.328;43.992;2022-11-30T06:35:45;16.83;;;6.60;;
69246;SDS011;56358;56.328;43.992;2022-11-30T06:37:46;23.58;;;8.20;;
69246;SDS011;56358;56.328;43.992;2022-11-30T06:39:47;26.58;;;9.88;;
69246;SDS011;56358;56.328;43.992;2022-11-30T06:41:47;19.88;;;7.38;;
69246;SDS011;56358;56.328;43.992;2022-11-30T06:43:48;35.53;;;10.88;;
69246;SDS011;56358;56.328;43.992;2022-11-30T06:45:49;15.90;;;7.18;;
69246;SDS011;56358;56.328;43.992;2022-11-30T06:47:53;20.27;;;8.05;;
69246;SDS011;56358;56.328;43.992;2022-11-30T06:49:54;16.98;;;7.30;;
69246;SDS011;56358;56.328;43.992;2022-11-30T06:51:55;18.88;;;6.68;;
69246;SDS011;56358;56.328;43.992;2022-11-30T06:53:55;19.48;;;6.10;;
69246;SDS011;56358;56.328;43.992;2022-11-30T06:55:56;16.77;;;6.70;;
69246;SDS011;56358;56.328;43.992;2022-11-30T06:58:06;26.58;;;8.65;;
69246;SDS011;56358;56.328;43.992;2022-11-30T07:00:09;19.80;;;6.68;;
69246;SDS011;56358;56.328;43.992;2022-11-30T07:02:12;22.30;;;7.88;;
69246;SDS011;56358;56.328;43.992;2022-11-30T07:04:14;23.27;;;8.00;;
69246;SDS011;56358;56.328;43.992;2022-11-30T07:06:15;22.63;;;8.05;;
69246;SDS011;56358;56.328;43.992;2022-11-30T07:08:16;24.75;;;7.95;;
69246;SDS011;56358;56.328;43.992;2022-11-30T07:10:17;14.82;;;6.05;;
69246;SDS011;56358;56.328;43.992;2022-11-30T07:12:17;24.83;;;5.20;;
69246;SDS011;56358;56.328;43.992;2022-11-30T07:14:18;19.25;;;7.63;;
69246;SDS011;56358;56.328;43.992;2022-11-30T07:16:19;19.45;;;7.57;;
69246;SDS011;56358;56.328;43.992;2022-11-30T07:18:20;19.90;;;8.27;;
69246;SDS011;56358;56.328;43.992;2022-11-30T07:20:20;30.95;;;9.88;;
69246;SDS011;56358;56.328;43.992;2022-11-30T07:22:21;27.27;;;7.65;;
69246;SDS011;56358;56.328;43.992;2022-11-30T07:24:21;14.88;;;6.97;;
69246;SDS011;56358;56.328;43.992;2022-11-30T07:26:41;28.55;;;9.90;;
69246;SDS011;56358;56.328;43.992;2022-11-30T07:28:42;30.08;;;9.57;;
69246;SDS011;56358;56.328;43.992;2022-11-30T07:30:45;28.33;;;8.15;;
69246;SDS011;56358;56.328;43.992;2022-11-30T07:32:46;19.42;;;6.32;;
69246;SDS011;56358;56.328;43.992;2022-11-30T07:34:46;20.70;;;8.25;;
69246;SDS011;56358;56.328;43.992;2022-11-30T07:36:47;30.90;;;8.20;;
69246;SDS011;56358;56.328;43.992;2022-11-30T07:38:48;20.15;;;7.40;;
69246;SDS011;56358;56.328;43.992;2022-11-30T07:40:49;22.77;;;8.05;;
69246;SDS011;56358;56.328;43.992;2022-11-30T07:42:53;23.70;;;8.10;;
69246;SDS011;56358;56.328;43.992;2022-11-30T07:44:54;19.33;;;8.73;;
69246;SDS011;56358;56.328;43.992;2022-11-30T07:46:55;15.65;;;7.22;;
69246;SDS011;56358;56.328;43.992;2022-11-30T07:48:56;27.55;;;9.15;;
69246;SDS011;56358;56.328;43.992;2022-11-30T07:51:04;33.92;;;9.55;;
69246;SDS011;56358;56.328;43.992;2022-11-30T07:53:05;20.95;;;7.75;;
69246;SDS011;56358;56.328;43.992;2022-11-30T07:55:06;25.20;;;7.32;;
69246;SDS011;56358;56.328;43.992;2022-11-30T07:57:07;21.08;;;7.60;;
69246;SDS011;56358;56.328;43.992;2022-11-30T07:59:08;28.40;;;7.78;;
69246;SDS011;56358;56.328;43.992;2022-11-30T08:01:10;21.83;;;6.90;;
69246;SDS011;56358;56.328;43.992;2022-11-30T08:03:13;29.45;;;8.45;;
69246;SDS011;56358;56.328;43.992;2022-11-30T08:05:13;29.35;;;11.20;;
69246;SDS011;56358;56.328;43.992;2022-11-30T08:07:14;22.67;;;8.75;;
69246;SDS011;56358;56.328;43.992;2022-11-30T08:09:15;24.10;;;8.93;;
69246;SDS011;56358;56.328;43.992;2022-11-30T08:11:16;21.65;;;8.38;;
69246;SDS011;56358;56.328;43.992;2022-11-30T08:13:19;25.00;;;8.73;;
69246;SDS011;56358;56.328;43.992;2022-11-30T08:15:20;23.83;;;8.82;;
69246;SDS011;56358;56.328;43.992;2022-11-30T08:17:20;17.20;;;6.65;;
69246;SDS011;56358;56.328;43.992;2022-11-30T08:19:21;19.50;;;8.15;;
69246;SDS011;56358;56.328;43.992;2022-11-30T08:21:22;23.60;;;7.88;;
69246;SDS011;56358;56.328;43.992;2022-11-30T08:23:23;39.17;;;13.65;;
69246;SDS011;56358;56.328;43.992;2022-11-30T08:25:24;20.13;;;7.57;;
69246;SDS011;56358;56.328;43.992;2022-11-30T08:27:25;32.28;;;9.20;;
69246;SDS011;56358;56.328;43.992;2022-11-30T08:29:25;20.48;;;7.85;;
69246;SDS011;56358;56.328;43.992;2022-11-30T08:31:27;21.63;;;8.10;;
69246;SDS011;56358;56.328;43.992;2022-11-30T08:33:30;24.83;;;9.00;;
69246;SDS011;56358;56.328;43.992;2022-11-30T08:35:31;24.13;;;7.93;;
69246;SDS011;56358;56.328;43.992;2022-11-30T08:37:34;23.45;;;9.30;;
69246;SDS011;56358;56.328;43.992;2022-11-30T08:39:36;21.23;;;8.32;;
69246;SDS011;56358;56.328;43.992;2022-11-30T08:41:37;21.80;;;8.90;;
69246;SDS011;56358;56.328;43.992;2022-11-30T08:43:38;26.95;;;8.43;;
69246;SDS011;56358;56.328;43.992;2022-11-30T08:45:39;17.25;;;6.60;;
69246;SDS011;56358;56.328;43.992;2022-11-30T08:47:40;25.98;;;6.88;;
69246;SDS011;56358;56.328;43.992;2022-11-30T08:49:41;21.10;;;7.68;;
69246;SDS011;56358;56.328;43.992;2022-11-30T08:51:41;21.95;;;8.35;;
69246;SDS011;56358;56.328;43.992;2022-11-30T08:53:43;22.00;;;10.07;;
69246;SDS011;56358;56.328;43.992;2022-11-30T08:55:53;23.25;;;10.18;;
69246;SDS011;56358;56.328;43.992;2022-11-30T08:57:55;21.10;;;8.82;;
69246;SDS011;56358;56.328;43.992;2022-11-30T08:59:56;22.73;;;7.65;;
69246;SDS011;56358;56.328;43.992;2022-11-30T09:01:57;33.83;;;10.65;;
69246;SDS011;56358;56.328;43.992;2022-11-30T09:03:58;20.88;;;8.55;;
69246;SDS011;56358;56.328;43.992;2022-11-30T09:06:04;20.85;;;8.07;;
69246;SDS011;56358;56.328;43.992;2022-11-30T09:08:12;26.80;;;9.55;;
69246;SDS011;56358;56.328;43.992;2022-11-30T09:10:13;28.77;;;8.52;;
69246;SDS011;56358;56.328;43.992;2022-11-30T09:12:13;32.67;;;10.18;;
69246;SDS011;56358;56.328;43.992;2022-11-30T09:14:14;21.42;;;8.68;;
69246;SDS011;56358;56.328;43.992;2022-11-30T09:16:15;27.38;;;9.95;;
69246;SDS011;56358;56.328;43.992;2022-11-30T09:18:17;25.85;;;8.68;;
69246;SDS011;56358;56.328;43.992;2022-11-30T09:20:18;23.92;;;8.05;;
69246;SDS011;56358;56.328;43.992;2022-11-30T09:22:19;20.60;;;8.93;;
69246;SDS011;56358;56.328;43.992;2022-11-30T09:24:19;31.67;;;8.02;;
69246;SDS011;56358;56.328;43.992;2022-11-30T09:26:20;20.42;;;7.50;;
69246;SDS011;56358;56.328;43.992;2022-11-30T09:28:24;20.92;;;9.48;;
69246;SDS011;56358;56.328;43.992;2022-11-30T09:30:26;24.63;;;8.73;;
69246;SDS011;56358;56.328;43.992;2022-11-30T09:32:27;21.35;;;8.77;;
69246;SDS011;56358;56.328;43.992;2022-11-30T09:34:28;23.27;;;9.77;;
69246;SDS011;56358;56.328;43.992;2022-11-30T09:36:28;18.20;;;7.25;;
69246;SDS011;56358;56.328;43.992;2022-11-30T09:38:30;25.63;;;8.75;;
69246;SDS011;56358;56.328;43.992;2022-11-30T09:40:31;25.85;;;8.07;;
69246;SDS011;56358;56.328;43.992;2022-11-30T09:43:07;23.27;;;8.88;;
69246;SDS011;56358;56.328;43.992;2022-11-30T09:45:06;17.17;;;7.28;;
69246;SDS011;56358;56.328;43.992;2022-11-30T09:49:42;26.05;;;9.73;;
69246;SDS011;56358;56.328;43.992;2022-11-30T09:51:45;24.17;;;9.07;;
69246;SDS011;56358;56.328;43.992;2022-11-30T09:53:49;24.50;;;9.95;;
69246;SDS011;56358;56.328;43.992;2022-11-30T09:55:54;25.05;;;9.40;;
69246;SDS011;56358;56.328;43.992;2022-11-30T09:57:57;30.00;;;9.15;;
69246;SDS011;56358;56.328;43.992;2022-11-30T10:00:05;26.83;;;11.38;;
69246;SDS011;56358;56.328;43.992;2022-11-30T10:02:14;29.20;;;9.43;;
69246;SDS011;56358;56.328;43.992;2022-11-30T10:04:21;28.75;;;10.55;;
69246;SDS011;56358;56.328;43.992;2022-11-30T10:06:33;29.08;;;9.95;;
69246;SDS011;56358;56.328;43.992;2022-11-30T10:11:30;26.83;;;11.65;;
69246;SDS011;56358;56.328;43.992;2022-11-30T10:14:10;29.02;;;10.27;;
69246;SDS011;56358;56.328;43.992;2022-11-30T10:19:00;24.55;;;9.23;;
69246;SDS011;56358;56.328;43.992;2022-11-30T10:26:07;20.85;;;9.52;;
69246;SDS011;56358;56.328;43.992;2022-11-30T10:30:23;31.58;;;11.15;;
69246;SDS011;56358;56.328;43.992;2022-11-30T10:32:30;31.90;;;11.05;;
69246;SDS011;56358;56.328;43.992;2022-11-30T10:34:37;34.28;;;12.25;;
69246;SDS011;56358;56.328;43.992;2022-11-30T10:36:41;35.53;;;13.35;;
69246;SDS011;56358;56.328;43.992;2022-11-30T10:38:49;39.15;;;15.32;;
69246;SDS011;56358;56.328;43.992;2022-11-30T10:40:58;45.88;;;14.52;;
69246;SDS011;56358;56.328;43.992;2022-11-30T10:45:21;39.53;;;14.60;;
69246;SDS011;56358;56.328;43.992;2022-11-30T10:47:25;39.30;;;13.15;;
69246;SDS011;56358;56.328;43.992;2022-11-30T10:49:33;33.88;;;11.30;;
69246;SDS011;56358;56.328;43.992;2022-11-30T10:51:36;28.77;;;9.55;;
69246;SDS011;56358;56.328;43.992;2022-11-30T10:53:40;29.77;;;11.23;;
69246;SDS011;56358;56.328;43.992;2022-11-30T10:55:42;35.97;;;12.10;;
69246;SDS011;56358;56.328;43.992;2022-11-30T10:57:48;29.33;;;10.90;;
69246;SDS011;56358;56.328;43.992;2022-11-30T10:59:53;34.38;;;13.18;;
69246;SDS011;56358;56.328;43.992;2022-11-30T11:01:56;39.30;;;12.32;;
69246;SDS011;56358;56.328;43.992;2022-11-30T11:04:15;37.83;;;13.50;;
69246;SDS011;56358;56.328;43.992;2022-11-30T11:06:20;41.03;;;15.35;;
69246;SDS011;56358;56.328;43.992;2022-11-30T11:08:23;39.20;;;13.45;;
69246;SDS011;56358;56.328;43.992;2022-11-30T11:12:51;37.67;;;14.85;;
69246;SDS011;56358;56.328;43.992;2022-11-30T11:15:06;32.10;;;13.18;;
69246;SDS011;56358;56.328;43.992;2022-11-30T11:19:25;101.15;;;35.67;;
69246;SDS011;56358;56.328;43.992;2022-11-30T11:21:35;35.25;;;12.18;;
69246;SDS011;56358;56.328;43.992;2022-11-30T11:23:37;30.98;;;11.98;;
69246;SDS011;56358;56.328;43.992;2022-11-30T11:25:39;37.90;;;12.10;;
69246;SDS011;56358;56.328;43.992;2022-11-30T11:27:42;35.50;;;12.40;;
69246;SDS011;56358;56.328;43.992;2022-11-30T11:29:42;27.75;;;10.93;;
69246;SDS011;56358;56.328;43.992;2022-11-30T11:31:44;31.08;;;12.48;;
69246;SDS011;56358;56.328;43.992;2022-11-30T11:33:49;38.45;;;12.57;;
69246;SDS011;56358;56.328;43.992;2022-11-30T11:35:52;28.67;;;12.10;;
69246;SDS011;56358;56.328;43.992;2022-11-30T11:38:32;30.30;;;11.52;;
69246;SDS011;56358;56.328;43.992;2022-11-30T11:43:19;25.73;;;10.68;;
69246;SDS011;56358;56.328;43.992;2022-11-30T11:45:24;36.22;;;12.55;;
69246;SDS011;56358;56.328;43.992;2022-11-30T11:49:38;27.20;;;12.10;;
69246;SDS011;56358;56.328;43.992;2022-11-30T11:51:39;32.28;;;11.05;;
69246;SDS011;56358;56.328;43.992;2022-11-30T11:53:49;34.85;;;11.95;;
69246;SDS011;56358;56.328;43.992;2022-11-30T11:55:55;34.88;;;12.90;;
69246;SDS011;56358;56.328;43.992;2022-11-30T11:57:59;42.00;;;13.25;;
69246;SDS011;56358;56.328;43.992;2022-11-30T12:00:04;34.13;;;14.68;;
69246;SDS011;56358;56.328;43.992;2022-11-30T12:04:39;41.97;;;14.38;;
69246;SDS011;56358;56.328;43.992;2022-11-30T12:06:42;37.97;;;15.05;;
69246;SDS011;56358;56.328;43.992;2022-11-30T12:08:51;31.45;;;11.82;;
69246;SDS011;56358;56.328;43.992;2022-11-30T12:11:16;30.88;;;11.43;;
69246;SDS011;56358;56.328;43.992;2022-11-30T12:13:21;45.33;;;11.68;;
69246;SDS011;56358;56.328;43.992;2022-11-30T12:15:30;35.67;;;12.63;;
69246;SDS011;56358;56.328;43.992;2022-11-30T12:20:27;30.38;;;11.63;;
69246;SDS011;56358;56.328;43.992;2022-11-30T12:34:17;26.00;;;11.18;;
69246;SDS011;56358;56.328;43.992;2022-11-30T12:36:42;35.70;;;12.10;;
69246;SDS011;56358;56.328;43.992;2022-11-30T12:45:41;26.33;;;11.43;;
69246;SDS011;56358;56.328;43.992;2022-11-30T12:47:54;42.58;;;17.10;;
69246;SDS011;56358;56.328;43.992;2022-11-30T13:04:16;22.27;;;9.73;;
69246;SDS011;56358;56.328;43.992;2022-11-30T13:06:41;30.58;;;10.05;;
69246;SDS011;56358;56.328;43.992;2022-11-30T13:13:53;29.05;;;8.95;;
69246;SDS011;56358;56.328;43.992;2022-11-30T13:15:57;32.72;;;9.52;;
69246;SDS011;56358;56.328;43.992;2022-11-30T13:17:59;36.03;;;13.32;;
69246;SDS011;56358;56.328;43.992;2022-11-30T13:22:08;23.33;;;9.50;;
69246;SDS011;56358;56.328;43.992;2022-11-30T13:24:46;27.65;;;8.88;;
69246;SDS011;56358;56.328;43.992;2022-11-30T13:27:13;28.25;;;9.63;;
69246;SDS011;56358;56.328;43.992;2022-11-30T13:31:46;23.75;;;8.15;;